sensor_id;sensor_type;location;lat;lon;timestamp;P1;durP1;ratioP1;P2;durP2;ratioP2
6517;SDS011;3292;48.944;9.240;2023-02-01T00:01:34;4.17;;;3.17;;
6517;SDS011;3292;48.944;9.240;2023-02-01T00:04:01;4.00;;;3.60;;
6517;SDS011;3292;48.944;9.240;2023-02-01T00:06:28;3.53;;;3.23;;
6517;SDS011;3292;48.944;9.240;2023-02-01T00:08:55;3.50;;;3.20;;
6517;SDS011;3292;48.944;9.240;2023-02-01T00:11:23;3.87;;;3.50;;
6517;SDS011;3292;48.944;9.240;2023-02-01T00:13:51;3.40;;;3.10;;
6517;SDS011;3292;48.944;9.240;2023-02-01T00:16:18;3.60;;;3.30;;
6517;SDS011;3292;48.944;9.240;2023-02-01T00:18:47;3.80;;;3.40;;
6517;SDS011;3292;48.944;9.240;2023-02-01T00:21:16;3.70;;;3.40;;
6517;SDS011;3292;48.944;9.240;2023-02-01T00:23:44;3.63;;;3.33;;
6517;SDS011;3292;48.944;9.240;2023-02-01T00:26:13;3.03;;;2.83;;
6517;SDS011;3292;48.944;9.240;2023-02-01T00:28:42;3.50;;;3.20;;
6517;SDS011;3292;48.944;9.240;2023-02-01T00:31:10;3.90;;;3.60;;
6517;SDS011;3292;48.944;9.240;2023-02-01T00:33:36;3.77;;;3.47;;
6517;SDS011;3292;48.944;9.240;2023-02-01T00:36:04;3.47;;;3.13;;
6517;SDS011;3292;48.944;9.240;2023-02-01T00:39:03;3.93;;;3.27;;
6517;SDS011;3292;48.944;9.240;2023-02-01T00:41:26;3.50;;;3.20;;
6517;SDS011;3292;48.944;9.240;2023-02-01T00:43:54;3.63;;;3.33;;
6517;SDS011;3292;48.944;9.240;2023-02-01T00:46:21;4.43;;;3.40;;
6517;SDS011;3292;48.944;9.240;2023-02-01T00:48:48;3.47;;;3.17;;
6517;SDS011;3292;48.944;9.240;2023-02-01T00:51:16;3.50;;;3.20;;
6517;SDS011;3292;48.944;9.240;2023-02-01T00:53:44;3.90;;;3.10;;
6517;SDS011;3292;48.944;9.240;2023-02-01T00:56:13;4.13;;;3.73;;
6517;SDS011;3292;48.944;9.240;2023-02-01T00:58:40;3.83;;;3.43;;
6517;SDS011;3292;48.944;9.240;2023-02-01T01:01:09;3.43;;;3.13;;
6517;SDS011;3292;48.944;9.240;2023-02-01T01:03:38;4.23;;;2.97;;
6517;SDS011;3292;48.944;9.240;2023-02-01T01:06:08;3.70;;;3.27;;
6517;SDS011;3292;48.944;9.240;2023-02-01T01:08:36;4.50;;;3.10;;
6517;SDS011;3292;48.944;9.240;2023-02-01T01:11:04;3.00;;;2.70;;
6517;SDS011;3292;48.944;9.240;2023-02-01T01:13:31;3.20;;;3.00;;
6517;SDS011;3292;48.944;9.240;2023-02-01T01:15:59;3.40;;;3.10;;
6517;SDS011;3292;48.944;9.240;2023-02-01T01:18:29;3.43;;;3.13;;
6517;SDS011;3292;48.944;9.240;2023-02-01T01:20:57;3.50;;;3.20;;
6517;SDS011;3292;48.944;9.240;2023-02-01T01:23:24;3.50;;;3.20;;
6517;SDS011;3292;48.944;9.240;2023-02-01T01:25:50;3.80;;;2.93;;
6517;SDS011;3292;48.944;9.240;2023-02-01T01:28:17;3.43;;;3.13;;
6517;SDS011;3292;48.944;9.240;2023-02-01T01:30:44;3.37;;;3.07;;
6517;SDS011;3292;48.944;9.240;2023-02-01T01:33:11;3.80;;;3.50;;
6517;SDS011;3292;48.944;9.240;2023-02-01T01:35:39;3.47;;;3.17;;
6517;SDS011;3292;48.944;9.240;2023-02-01T01:38:06;3.40;;;3.20;;
6517;SDS011;3292;48.944;9.240;2023-02-01T01:40:35;3.30;;;3.00;;
6517;SDS011;3292;48.944;9.240;2023-02-01T01:43:02;3.27;;;3.00;;
6517;SDS011;3292;48.944;9.240;2023-02-01T01:45:34;3.40;;;3.10;;
6517;SDS011;3292;48.944;9.240;2023-02-01T01:48:03;3.70;;;3.27;;
6517;SDS011;3292;48.944;9.240;2023-02-01T01:50:33;3.50;;;3.13;;
6517;SDS011;3292;48.944;9.240;2023-02-01T01:53:06;3.80;;;3.40;;
6517;SDS011;3292;48.944;9.240;2023-02-01T01:55:36;3.83;;;3.53;;
6517;SDS011;3292;48.944;9.240;2023-02-01T01:58:12;3.33;;;3.03;;
6517;SDS011;3292;48.944;9.240;2023-02-01T02:00:41;3.30;;;2.97;;
6517;SDS011;3292;48.944;9.240;2023-02-01T02:03:11;3.50;;;3.20;;
6517;SDS011;3292;48.944;9.240;2023-02-01T02:05:40;3.63;;;3.33;;
6517;SDS011;3292;48.944;9.240;2023-02-01T02:08:09;3.23;;;2.97;;
6517;SDS011;3292;48.944;9.240;2023-02-01T02:10:36;3.40;;;3.10;;
6517;SDS011;3292;48.944;9.240;2023-02-01T02:13:21;3.03;;;2.83;;
6517;SDS011;3292;48.944;9.240;2023-02-01T02:15:50;3.20;;;3.00;;
6517;SDS011;3292;48.944;9.240;2023-02-01T02:18:25;3.23;;;2.80;;
6517;SDS011;3292;48.944;9.240;2023-02-01T02:21:09;3.40;;;2.60;;
6517;SDS011;3292;48.944;9.240;2023-02-01T02:26:54;3.10;;;2.80;;
6517;SDS011;3292;48.944;9.240;2023-02-01T02:29:57;3.87;;;2.60;;
6517;SDS011;3292;48.944;9.240;2023-02-01T02:32:55;3.30;;;3.00;;
6517;SDS011;3292;48.944;9.240;2023-02-01T02:35:58;4.63;;;3.10;;
6517;SDS011;3292;48.944;9.240;2023-02-01T02:38:29;3.50;;;3.20;;
6517;SDS011;3292;48.944;9.240;2023-02-01T02:41:01;3.30;;;3.00;;
6517;SDS011;3292;48.944;9.240;2023-02-01T02:43:35;3.10;;;2.80;;
6517;SDS011;3292;48.944;9.240;2023-02-01T02:46:29;3.20;;;3.00;;
6517;SDS011;3292;48.944;9.240;2023-02-01T02:49:20;2.80;;;2.60;;
6517;SDS011;3292;48.944;9.240;2023-02-01T02:51:56;2.50;;;2.30;;
6517;SDS011;3292;48.944;9.240;2023-02-01T02:54:46;3.07;;;2.87;;
6517;SDS011;3292;48.944;9.240;2023-02-01T02:57:18;2.87;;;2.67;;
6517;SDS011;3292;48.944;9.240;2023-02-01T03:00:05;2.73;;;2.53;;
6517;SDS011;3292;48.944;9.240;2023-02-01T03:02:52;2.60;;;2.40;;
6517;SDS011;3292;48.944;9.240;2023-02-01T03:05:40;2.90;;;2.70;;
6517;SDS011;3292;48.944;9.240;2023-02-01T03:08:11;2.97;;;2.77;;
6517;SDS011;3292;48.944;9.240;2023-02-01T03:10:44;2.80;;;2.60;;
6517;SDS011;3292;48.944;9.240;2023-02-01T03:13:20;2.73;;;2.53;;
6517;SDS011;3292;48.944;9.240;2023-02-01T03:15:53;2.67;;;2.43;;
6517;SDS011;3292;48.944;9.240;2023-02-01T03:18:28;2.83;;;2.63;;
6517;SDS011;3292;48.944;9.240;2023-02-01T03:20:59;2.97;;;2.67;;
6517;SDS011;3292;48.944;9.240;2023-02-01T03:23:32;3.07;;;2.80;;
6517;SDS011;3292;48.944;9.240;2023-02-01T03:26:02;3.03;;;2.83;;
6517;SDS011;3292;48.944;9.240;2023-02-01T03:28:32;3.03;;;2.83;;
6517;SDS011;3292;48.944;9.240;2023-02-01T03:31:00;2.90;;;2.70;;
6517;SDS011;3292;48.944;9.240;2023-02-01T03:33:28;3.37;;;3.10;;
6517;SDS011;3292;48.944;9.240;2023-02-01T03:36:02;3.00;;;2.70;;
6517;SDS011;3292;48.944;9.240;2023-02-01T03:41:53;2.63;;;2.43;;
6517;SDS011;3292;48.944;9.240;2023-02-01T03:44:22;2.90;;;2.70;;
6517;SDS011;3292;48.944;9.240;2023-02-01T03:49:46;3.40;;;3.10;;
6517;SDS011;3292;48.944;9.240;2023-02-01T03:52:32;3.63;;;3.33;;
6517;SDS011;3292;48.944;9.240;2023-02-01T03:55:06;3.33;;;3.03;;
6517;SDS011;3292;48.944;9.240;2023-02-01T04:00:32;3.13;;;2.93;;
6517;SDS011;3292;48.944;9.240;2023-02-01T04:02:59;3.30;;;3.10;;
6517;SDS011;3292;48.944;9.240;2023-02-01T04:05:25;3.17;;;2.87;;
6517;SDS011;3292;48.944;9.240;2023-02-01T04:07:52;3.83;;;3.40;;
6517;SDS011;3292;48.944;9.240;2023-02-01T04:13:09;3.20;;;3.00;;
6517;SDS011;3292;48.944;9.240;2023-02-01T04:15:35;3.40;;;2.83;;
6517;SDS011;3292;48.944;9.240;2023-02-01T04:18:02;3.10;;;2.90;;
6517;SDS011;3292;48.944;9.240;2023-02-01T04:20:29;3.27;;;2.70;;
6517;SDS011;3292;48.944;9.240;2023-02-01T04:22:57;3.03;;;2.67;;
6517;SDS011;3292;48.944;9.240;2023-02-01T04:25:24;2.80;;;2.60;;
6517;SDS011;3292;48.944;9.240;2023-02-01T04:27:52;2.53;;;2.33;;
6517;SDS011;3292;48.944;9.240;2023-02-01T04:30:18;2.47;;;2.27;;
6517;SDS011;3292;48.944;9.240;2023-02-01T04:32:45;2.70;;;2.50;;
6517;SDS011;3292;48.944;9.240;2023-02-01T04:35:12;2.70;;;2.50;;
6517;SDS011;3292;48.944;9.240;2023-02-01T04:37:39;3.27;;;2.67;;
6517;SDS011;3292;48.944;9.240;2023-02-01T04:40:06;2.83;;;2.63;;
6517;SDS011;3292;48.944;9.240;2023-02-01T04:42:34;2.93;;;2.73;;
6517;SDS011;3292;48.944;9.240;2023-02-01T04:45:03;2.87;;;2.67;;
6517;SDS011;3292;48.944;9.240;2023-02-01T04:47:30;3.23;;;2.70;;
6517;SDS011;3292;48.944;9.240;2023-02-01T04:49:57;2.83;;;2.63;;
6517;SDS011;3292;48.944;9.240;2023-02-01T04:52:24;2.60;;;2.40;;
6517;SDS011;3292;48.944;9.240;2023-02-01T04:54:52;3.00;;;2.70;;
6517;SDS011;3292;48.944;9.240;2023-02-01T04:57:22;2.60;;;2.40;;
6517;SDS011;3292;48.944;9.240;2023-02-01T04:59:49;3.53;;;2.47;;
6517;SDS011;3292;48.944;9.240;2023-02-01T05:02:17;3.57;;;2.70;;
6517;SDS011;3292;48.944;9.240;2023-02-01T05:04:44;2.50;;;2.30;;
6517;SDS011;3292;48.944;9.240;2023-02-01T05:07:11;3.50;;;2.70;;
6517;SDS011;3292;48.944;9.240;2023-02-01T05:09:37;2.70;;;2.50;;
6517;SDS011;3292;48.944;9.240;2023-02-01T05:12:04;2.67;;;2.47;;
6517;SDS011;3292;48.944;9.240;2023-02-01T05:14:49;3.63;;;2.33;;
6517;SDS011;3292;48.944;9.240;2023-02-01T05:17:17;2.60;;;2.40;;
6517;SDS011;3292;48.944;9.240;2023-02-01T05:19:44;2.70;;;2.50;;
6517;SDS011;3292;48.944;9.240;2023-02-01T05:22:25;5.03;;;2.40;;
6517;SDS011;3292;48.944;9.240;2023-02-01T05:28:02;2.93;;;2.70;;
6517;SDS011;3292;48.944;9.240;2023-02-01T05:30:29;2.67;;;2.47;;
6517;SDS011;3292;48.944;9.240;2023-02-01T05:33:01;3.43;;;3.00;;
6517;SDS011;3292;48.944;9.240;2023-02-01T05:35:29;3.40;;;2.83;;
6517;SDS011;3292;48.944;9.240;2023-02-01T05:37:56;3.13;;;2.90;;
6517;SDS011;3292;48.944;9.240;2023-02-01T05:40:23;4.90;;;3.13;;
6517;SDS011;3292;48.944;9.240;2023-02-01T05:42:49;3.57;;;2.43;;
6517;SDS011;3292;48.944;9.240;2023-02-01T05:45:16;3.40;;;2.80;;
6517;SDS011;3292;48.944;9.240;2023-02-01T05:47:43;4.17;;;2.93;;
6517;SDS011;3292;48.944;9.240;2023-02-01T05:50:11;3.13;;;2.80;;
6517;SDS011;3292;48.944;9.240;2023-02-01T05:52:38;2.87;;;2.67;;
6517;SDS011;3292;48.944;9.240;2023-02-01T05:55:05;4.43;;;2.80;;
6517;SDS011;3292;48.944;9.240;2023-02-01T05:57:32;2.50;;;2.30;;
6517;SDS011;3292;48.944;9.240;2023-02-01T05:59:59;2.90;;;2.70;;
6517;SDS011;3292;48.944;9.240;2023-02-01T06:02:26;3.00;;;2.40;;
6517;SDS011;3292;48.944;9.240;2023-02-01T06:04:52;2.60;;;2.40;;
6517;SDS011;3292;48.944;9.240;2023-02-01T06:07:20;2.57;;;1.97;;
6517;SDS011;3292;48.944;9.240;2023-02-01T06:09:48;2.77;;;2.10;;
6517;SDS011;3292;48.944;9.240;2023-02-01T06:12:15;2.23;;;2.03;;
6517;SDS011;3292;48.944;9.240;2023-02-01T06:14:42;2.60;;;2.40;;
6517;SDS011;3292;48.944;9.240;2023-02-01T06:17:08;2.53;;;2.20;;
6517;SDS011;3292;48.944;9.240;2023-02-01T06:19:35;2.77;;;2.57;;
6517;SDS011;3292;48.944;9.240;2023-02-01T06:22:02;2.97;;;2.70;;
6517;SDS011;3292;48.944;9.240;2023-02-01T06:24:32;4.57;;;2.50;;
6517;SDS011;3292;48.944;9.240;2023-02-01T06:26:59;4.13;;;3.13;;
6517;SDS011;3292;48.944;9.240;2023-02-01T06:29:28;4.57;;;3.50;;
6517;SDS011;3292;48.944;9.240;2023-02-01T06:31:54;3.73;;;3.33;;
6517;SDS011;3292;48.944;9.240;2023-02-01T06:34:21;3.93;;;3.33;;
6517;SDS011;3292;48.944;9.240;2023-02-01T06:36:48;3.83;;;3.10;;
6517;SDS011;3292;48.944;9.240;2023-02-01T06:39:15;7.60;;;3.90;;
6517;SDS011;3292;48.944;9.240;2023-02-01T06:41:44;4.90;;;3.87;;
6517;SDS011;3292;48.944;9.240;2023-02-01T06:44:12;6.77;;;4.17;;
6517;SDS011;3292;48.944;9.240;2023-02-01T06:46:39;7.37;;;3.90;;
6517;SDS011;3292;48.944;9.240;2023-02-01T06:49:06;4.33;;;3.80;;
6517;SDS011;3292;48.944;9.240;2023-02-01T06:51:33;4.70;;;4.23;;
6517;SDS011;3292;48.944;9.240;2023-02-01T06:56:51;6.73;;;4.43;;
6517;SDS011;3292;48.944;9.240;2023-02-01T06:59:17;4.23;;;3.83;;
6517;SDS011;3292;48.944;9.240;2023-02-01T07:01:44;4.93;;;4.13;;
6517;SDS011;3292;48.944;9.240;2023-02-01T07:04:11;5.43;;;4.37;;
6517;SDS011;3292;48.944;9.240;2023-02-01T07:06:38;7.20;;;4.67;;
6517;SDS011;3292;48.944;9.240;2023-02-01T07:09:05;11.00;;;5.33;;
6517;SDS011;3292;48.944;9.240;2023-02-01T07:11:32;9.33;;;5.00;;
6517;SDS011;3292;48.944;9.240;2023-02-01T07:14:00;6.17;;;4.80;;
6517;SDS011;3292;48.944;9.240;2023-02-01T07:16:27;6.53;;;4.73;;
6517;SDS011;3292;48.944;9.240;2023-02-01T07:18:54;6.10;;;5.00;;
6517;SDS011;3292;48.944;9.240;2023-02-01T07:21:21;6.33;;;4.83;;
6517;SDS011;3292;48.944;9.240;2023-02-01T07:27:09;6.83;;;5.27;;
6517;SDS011;3292;48.944;9.240;2023-02-01T07:29:38;6.47;;;4.97;;
6517;SDS011;3292;48.944;9.240;2023-02-01T07:32:04;8.37;;;5.50;;
6517;SDS011;3292;48.944;9.240;2023-02-01T07:34:31;11.43;;;5.90;;
6517;SDS011;3292;48.944;9.240;2023-02-01T07:36:59;6.83;;;5.30;;
6517;SDS011;3292;48.944;9.240;2023-02-01T07:39:26;9.87;;;6.10;;
6517;SDS011;3292;48.944;9.240;2023-02-01T07:41:53;10.70;;;5.80;;
6517;SDS011;3292;48.944;9.240;2023-02-01T07:44:21;11.13;;;6.57;;
6517;SDS011;3292;48.944;9.240;2023-02-01T07:46:50;9.67;;;6.30;;
6517;SDS011;3292;48.944;9.240;2023-02-01T07:49:16;11.03;;;6.90;;
6517;SDS011;3292;48.944;9.240;2023-02-01T07:51:43;11.37;;;7.20;;
6517;SDS011;3292;48.944;9.240;2023-02-01T07:54:10;10.73;;;7.17;;
6517;SDS011;3292;48.944;9.240;2023-02-01T07:56:37;14.23;;;6.13;;
6517;SDS011;3292;48.944;9.240;2023-02-01T07:59:03;10.83;;;6.10;;
6517;SDS011;3292;48.944;9.240;2023-02-01T08:01:32;12.20;;;6.83;;
6517;SDS011;3292;48.944;9.240;2023-02-01T08:04:00;12.37;;;6.17;;
6517;SDS011;3292;48.944;9.240;2023-02-01T08:06:29;11.03;;;6.40;;
6517;SDS011;3292;48.944;9.240;2023-02-01T08:08:57;11.17;;;5.90;;
6517;SDS011;3292;48.944;9.240;2023-02-01T08:11:27;11.93;;;6.10;;
6517;SDS011;3292;48.944;9.240;2023-02-01T08:13:54;13.47;;;6.17;;
6517;SDS011;3292;48.944;9.240;2023-02-01T08:16:21;11.50;;;5.63;;
6517;SDS011;3292;48.944;9.240;2023-02-01T08:18:49;9.60;;;5.40;;
6517;SDS011;3292;48.944;9.240;2023-02-01T08:21:19;9.40;;;5.20;;
6517;SDS011;3292;48.944;9.240;2023-02-01T08:23:48;12.70;;;5.60;;
6517;SDS011;3292;48.944;9.240;2023-02-01T08:26:15;11.10;;;5.17;;
6517;SDS011;3292;48.944;9.240;2023-02-01T08:28:47;9.57;;;5.43;;
6517;SDS011;3292;48.944;9.240;2023-02-01T08:31:15;10.43;;;5.30;;
6517;SDS011;3292;48.944;9.240;2023-02-01T08:33:48;9.23;;;5.37;;
6517;SDS011;3292;48.944;9.240;2023-02-01T08:36:18;7.53;;;4.93;;
6517;SDS011;3292;48.944;9.240;2023-02-01T08:38:45;7.67;;;4.97;;
6517;SDS011;3292;48.944;9.240;2023-02-01T08:41:13;11.07;;;4.73;;
6517;SDS011;3292;48.944;9.240;2023-02-01T08:43:42;11.47;;;5.80;;
6517;SDS011;3292;48.944;9.240;2023-02-01T08:46:09;8.73;;;4.60;;
6517;SDS011;3292;48.944;9.240;2023-02-01T08:48:36;7.90;;;4.67;;
6517;SDS011;3292;48.944;9.240;2023-02-01T08:51:04;7.37;;;4.47;;
6517;SDS011;3292;48.944;9.240;2023-02-01T08:53:35;10.17;;;4.73;;
6517;SDS011;3292;48.944;9.240;2023-02-01T08:56:03;8.73;;;4.77;;
6517;SDS011;3292;48.944;9.240;2023-02-01T08:58:30;8.43;;;4.90;;
6517;SDS011;3292;48.944;9.240;2023-02-01T09:00:57;11.53;;;4.57;;
6517;SDS011;3292;48.944;9.240;2023-02-01T09:03:29;8.57;;;4.73;;
6517;SDS011;3292;48.944;9.240;2023-02-01T09:05:59;9.03;;;4.23;;
6517;SDS011;3292;48.944;9.240;2023-02-01T09:08:26;9.33;;;4.90;;
6517;SDS011;3292;48.944;9.240;2023-02-01T09:10:57;8.87;;;4.23;;
6517;SDS011;3292;48.944;9.240;2023-02-01T09:13:25;8.03;;;4.10;;
6517;SDS011;3292;48.944;9.240;2023-02-01T09:15:52;8.70;;;4.33;;
6517;SDS011;3292;48.944;9.240;2023-02-01T09:18:19;10.07;;;4.60;;
6517;SDS011;3292;48.944;9.240;2023-02-01T09:20:46;10.40;;;3.60;;
6517;SDS011;3292;48.944;9.240;2023-02-01T09:23:12;8.93;;;4.20;;
6517;SDS011;3292;48.944;9.240;2023-02-01T09:25:39;7.73;;;4.47;;
6517;SDS011;3292;48.944;9.240;2023-02-01T09:28:07;7.10;;;3.90;;
6517;SDS011;3292;48.944;9.240;2023-02-01T09:30:35;9.67;;;4.30;;
6517;SDS011;3292;48.944;9.240;2023-02-01T09:33:02;11.40;;;4.63;;
6517;SDS011;3292;48.944;9.240;2023-02-01T09:35:29;10.00;;;4.03;;
6517;SDS011;3292;48.944;9.240;2023-02-01T09:37:56;9.70;;;4.13;;
6517;SDS011;3292;48.944;9.240;2023-02-01T09:40:23;10.67;;;4.50;;
6517;SDS011;3292;48.944;9.240;2023-02-01T09:42:56;8.93;;;3.77;;
6517;SDS011;3292;48.944;9.240;2023-02-01T09:45:38;9.50;;;4.07;;
6517;SDS011;3292;48.944;9.240;2023-02-01T09:48:15;7.60;;;3.87;;
6517;SDS011;3292;48.944;9.240;2023-02-01T09:50:47;13.20;;;4.50;;
6517;SDS011;3292;48.944;9.240;2023-02-01T09:53:18;9.87;;;4.00;;
6517;SDS011;3292;48.944;9.240;2023-02-01T09:55:50;9.43;;;4.37;;
6517;SDS011;3292;48.944;9.240;2023-02-01T09:58:22;11.93;;;4.13;;
6517;SDS011;3292;48.944;9.240;2023-02-01T10:00:57;10.63;;;4.40;;
6517;SDS011;3292;48.944;9.240;2023-02-01T10:03:26;16.67;;;4.47;;
6517;SDS011;3292;48.944;9.240;2023-02-01T10:06:13;15.03;;;4.23;;
6517;SDS011;3292;48.944;9.240;2023-02-01T10:09:17;8.73;;;4.07;;
6517;SDS011;3292;48.944;9.240;2023-02-01T10:12:00;8.90;;;4.23;;
6517;SDS011;3292;48.944;9.240;2023-02-01T10:14:50;11.70;;;4.27;;
6517;SDS011;3292;48.944;9.240;2023-02-01T10:17:29;13.10;;;4.07;;
6517;SDS011;3292;48.944;9.240;2023-02-01T10:20:16;10.03;;;3.57;;
6517;SDS011;3292;48.944;9.240;2023-02-01T10:22:50;8.60;;;3.87;;
6517;SDS011;3292;48.944;9.240;2023-02-01T10:25:26;9.20;;;3.87;;
6517;SDS011;3292;48.944;9.240;2023-02-01T10:27:55;7.70;;;4.30;;
6517;SDS011;3292;48.944;9.240;2023-02-01T10:30:24;11.43;;;4.13;;
6517;SDS011;3292;48.944;9.240;2023-02-01T10:32:56;10.47;;;3.50;;
6517;SDS011;3292;48.944;9.240;2023-02-01T10:35:39;6.63;;;3.63;;
6517;SDS011;3292;48.944;9.240;2023-02-01T10:38:07;15.80;;;3.93;;
6517;SDS011;3292;48.944;9.240;2023-02-01T10:40:43;14.17;;;4.03;;
6517;SDS011;3292;48.944;9.240;2023-02-01T10:43:10;9.33;;;3.53;;
6517;SDS011;3292;48.944;9.240;2023-02-01T10:45:36;15.07;;;3.67;;
6517;SDS011;3292;48.944;9.240;2023-02-01T10:48:06;9.60;;;4.00;;
6517;SDS011;3292;48.944;9.240;2023-02-01T10:53:33;11.10;;;4.23;;
6517;SDS011;3292;48.944;9.240;2023-02-01T10:56:05;13.90;;;3.90;;
6517;SDS011;3292;48.944;9.240;2023-02-01T10:58:34;11.53;;;3.83;;
6517;SDS011;3292;48.944;9.240;2023-02-01T11:01:03;9.13;;;3.80;;
6517;SDS011;3292;48.944;9.240;2023-02-01T11:03:34;9.17;;;4.27;;
6517;SDS011;3292;48.944;9.240;2023-02-01T11:06:09;12.63;;;4.57;;
6517;SDS011;3292;48.944;9.240;2023-02-01T11:08:43;8.83;;;3.63;;
6517;SDS011;3292;48.944;9.240;2023-02-01T11:11:12;14.67;;;4.83;;
6517;SDS011;3292;48.944;9.240;2023-02-01T11:13:39;12.23;;;4.37;;
6517;SDS011;3292;48.944;9.240;2023-02-01T11:16:09;9.27;;;3.70;;
6517;SDS011;3292;48.944;9.240;2023-02-01T11:21:53;10.80;;;3.33;;
6517;SDS011;3292;48.944;9.240;2023-02-01T11:24:22;10.97;;;3.73;;
6517;SDS011;3292;48.944;9.240;2023-02-01T11:26:50;10.03;;;4.17;;
6517;SDS011;3292;48.944;9.240;2023-02-01T11:29:20;8.83;;;3.87;;
6517;SDS011;3292;48.944;9.240;2023-02-01T11:31:54;10.37;;;3.60;;
6517;SDS011;3292;48.944;9.240;2023-02-01T11:34:24;8.10;;;3.63;;
6517;SDS011;3292;48.944;9.240;2023-02-01T11:36:57;8.30;;;3.40;;
6517;SDS011;3292;48.944;9.240;2023-02-01T11:39:26;6.87;;;3.30;;
6517;SDS011;3292;48.944;9.240;2023-02-01T11:41:57;8.23;;;3.57;;
6517;SDS011;3292;48.944;9.240;2023-02-01T11:44:29;11.37;;;3.40;;
6517;SDS011;3292;48.944;9.240;2023-02-01T11:47:16;9.70;;;3.83;;
6517;SDS011;3292;48.944;9.240;2023-02-01T11:49:49;8.50;;;3.73;;
6517;SDS011;3292;48.944;9.240;2023-02-01T11:52:21;12.57;;;3.17;;
6517;SDS011;3292;48.944;9.240;2023-02-01T11:55:37;13.33;;;3.97;;
6517;SDS011;3292;48.944;9.240;2023-02-01T12:01:06;8.57;;;3.80;;
6517;SDS011;3292;48.944;9.240;2023-02-01T12:03:47;8.73;;;3.17;;
6517;SDS011;3292;48.944;9.240;2023-02-01T12:06:43;9.83;;;3.70;;
6517;SDS011;3292;48.944;9.240;2023-02-01T12:09:21;11.53;;;3.60;;
6517;SDS011;3292;48.944;9.240;2023-02-01T12:12:00;9.40;;;3.53;;
6517;SDS011;3292;48.944;9.240;2023-02-01T12:14:37;9.87;;;3.67;;
6517;SDS011;3292;48.944;9.240;2023-02-01T12:17:17;8.67;;;3.97;;
6517;SDS011;3292;48.944;9.240;2023-02-01T12:20:01;15.53;;;3.53;;
6517;SDS011;3292;48.944;9.240;2023-02-01T12:22:41;12.63;;;4.50;;
6517;SDS011;3292;48.944;9.240;2023-02-01T12:25:26;13.17;;;4.40;;
6517;SDS011;3292;48.944;9.240;2023-02-01T12:28:13;8.53;;;3.40;;
6517;SDS011;3292;48.944;9.240;2023-02-01T12:33:57;8.00;;;3.07;;
6517;SDS011;3292;48.944;9.240;2023-02-01T12:36:46;8.27;;;3.67;;
6517;SDS011;3292;48.944;9.240;2023-02-01T12:39:22;9.97;;;4.03;;
6517;SDS011;3292;48.944;9.240;2023-02-01T12:41:55;10.87;;;3.53;;
6517;SDS011;3292;48.944;9.240;2023-02-01T12:44:35;10.67;;;3.63;;
6517;SDS011;3292;48.944;9.240;2023-02-01T12:47:11;9.90;;;3.40;;
6517;SDS011;3292;48.944;9.240;2023-02-01T12:49:45;8.00;;;3.53;;
6517;SDS011;3292;48.944;9.240;2023-02-01T12:52:16;7.70;;;3.10;;
6517;SDS011;3292;48.944;9.240;2023-02-01T12:54:47;10.23;;;3.60;;
6517;SDS011;3292;48.944;9.240;2023-02-01T12:57:23;15.03;;;4.53;;
6517;SDS011;3292;48.944;9.240;2023-02-01T12:59:54;10.23;;;3.97;;
6517;SDS011;3292;48.944;9.240;2023-02-01T13:02:27;9.13;;;3.33;;
6517;SDS011;3292;48.944;9.240;2023-02-01T13:05:04;7.97;;;3.30;;
6517;SDS011;3292;48.944;9.240;2023-02-01T13:07:39;11.00;;;4.50;;
6517;SDS011;3292;48.944;9.240;2023-02-01T13:10:12;14.30;;;3.90;;
6517;SDS011;3292;48.944;9.240;2023-02-01T13:12:44;8.93;;;3.60;;
6517;SDS011;3292;48.944;9.240;2023-02-01T13:15:19;9.17;;;4.07;;
6517;SDS011;3292;48.944;9.240;2023-02-01T13:21:08;6.63;;;3.50;;
6517;SDS011;3292;48.944;9.240;2023-02-01T13:23:41;10.17;;;3.40;;
6517;SDS011;3292;48.944;9.240;2023-02-01T13:26:09;8.67;;;3.90;;
6517;SDS011;3292;48.944;9.240;2023-02-01T13:28:39;9.47;;;3.37;;
6517;SDS011;3292;48.944;9.240;2023-02-01T13:31:17;9.93;;;4.60;;
6517;SDS011;3292;48.944;9.240;2023-02-01T13:34:01;6.30;;;3.17;;
6517;SDS011;3292;48.944;9.240;2023-02-01T13:36:54;12.07;;;3.83;;
6517;SDS011;3292;48.944;9.240;2023-02-01T13:39:45;10.30;;;4.00;;
6517;SDS011;3292;48.944;9.240;2023-02-01T13:42:18;10.53;;;4.17;;
6517;SDS011;3292;48.944;9.240;2023-02-01T13:44:50;9.37;;;3.70;;
6517;SDS011;3292;48.944;9.240;2023-02-01T13:47:22;10.10;;;4.73;;
6517;SDS011;3292;48.944;9.240;2023-02-01T13:49:53;12.17;;;4.20;;
6517;SDS011;3292;48.944;9.240;2023-02-01T13:52:27;9.67;;;3.30;;
6517;SDS011;3292;48.944;9.240;2023-02-01T13:55:00;13.90;;;4.43;;
6517;SDS011;3292;48.944;9.240;2023-02-01T13:57:40;8.93;;;3.73;;
6517;SDS011;3292;48.944;9.240;2023-02-01T14:00:22;8.83;;;3.83;;
6517;SDS011;3292;48.944;9.240;2023-02-01T14:05:56;9.30;;;3.47;;
6517;SDS011;3292;48.944;9.240;2023-02-01T14:08:46;9.70;;;3.60;;
6517;SDS011;3292;48.944;9.240;2023-02-01T14:11:39;15.20;;;4.33;;
6517;SDS011;3292;48.944;9.240;2023-02-01T14:23:17;10.23;;;3.80;;
6517;SDS011;3292;48.944;9.240;2023-02-01T14:26:01;9.07;;;3.40;;
6517;SDS011;3292;48.944;9.240;2023-02-01T14:28:39;12.90;;;3.90;;
6517;SDS011;3292;48.944;9.240;2023-02-01T14:31:26;10.07;;;4.13;;
6517;SDS011;3292;48.944;9.240;2023-02-01T14:34:00;9.67;;;3.93;;
6517;SDS011;3292;48.944;9.240;2023-02-01T14:36:41;10.00;;;4.17;;
6517;SDS011;3292;48.944;9.240;2023-02-01T14:39:18;10.03;;;4.07;;
6517;SDS011;3292;48.944;9.240;2023-02-01T14:41:52;12.43;;;4.03;;
6517;SDS011;3292;48.944;9.240;2023-02-01T14:44:28;8.83;;;3.97;;
6517;SDS011;3292;48.944;9.240;2023-02-01T14:48:39;11.87;;;4.13;;
6517;SDS011;3292;48.944;9.240;2023-02-01T14:50:21;11.90;;;3.60;;
6517;SDS011;3292;48.944;9.240;2023-02-01T14:53:04;7.27;;;3.77;;
6517;SDS011;3292;48.944;9.240;2023-02-01T14:55:49;8.43;;;3.50;;
6517;SDS011;3292;48.944;9.240;2023-02-01T14:58:19;6.47;;;3.20;;
6517;SDS011;3292;48.944;9.240;2023-02-01T15:00:54;13.33;;;4.40;;
6517;SDS011;3292;48.944;9.240;2023-02-01T15:03:24;8.73;;;3.63;;
6517;SDS011;3292;48.944;9.240;2023-02-01T15:09:00;10.67;;;4.27;;
6517;SDS011;3292;48.944;9.240;2023-02-01T15:11:29;9.13;;;3.17;;
6517;SDS011;3292;48.944;9.240;2023-02-01T15:14:18;7.87;;;3.53;;
6517;SDS011;3292;48.944;9.240;2023-02-01T15:16:45;8.80;;;3.60;;
6517;SDS011;3292;48.944;9.240;2023-02-01T15:19:19;9.80;;;3.90;;
6517;SDS011;3292;48.944;9.240;2023-02-01T15:21:49;9.57;;;3.40;;
6517;SDS011;3292;48.944;9.240;2023-02-01T15:24:21;8.43;;;3.50;;
6517;SDS011;3292;48.944;9.240;2023-02-01T15:27:02;10.53;;;3.37;;
6517;SDS011;3292;48.944;9.240;2023-02-01T15:29:30;10.63;;;4.00;;
6517;SDS011;3292;48.944;9.240;2023-02-01T15:31:58;9.63;;;3.33;;
6517;SDS011;3292;48.944;9.240;2023-02-01T15:34:44;11.63;;;3.57;;
6517;SDS011;3292;48.944;9.240;2023-02-01T15:37:14;10.40;;;3.17;;
6517;SDS011;3292;48.944;9.240;2023-02-01T15:42:51;7.80;;;3.17;;
6517;SDS011;3292;48.944;9.240;2023-02-01T15:45:25;6.10;;;3.10;;
6517;SDS011;3292;48.944;9.240;2023-02-01T15:47:58;8.50;;;3.73;;
6517;SDS011;3292;48.944;9.240;2023-02-01T15:50:26;27.27;;;19.20;;
6517;SDS011;3292;48.944;9.240;2023-02-01T15:52:58;11.33;;;4.33;;
6517;SDS011;3292;48.944;9.240;2023-02-01T15:55:29;10.87;;;4.73;;
6517;SDS011;3292;48.944;9.240;2023-02-01T15:58:04;11.23;;;6.73;;
6517;SDS011;3292;48.944;9.240;2023-02-01T16:00:34;19.80;;;10.57;;
6517;SDS011;3292;48.944;9.240;2023-02-01T16:03:20;10.67;;;5.13;;
6517;SDS011;3292;48.944;9.240;2023-02-01T16:05:56;15.27;;;9.63;;
6517;SDS011;3292;48.944;9.240;2023-02-01T16:08:26;8.87;;;5.13;;
6517;SDS011;3292;48.944;9.240;2023-02-01T16:11:00;11.00;;;5.83;;
6517;SDS011;3292;48.944;9.240;2023-02-01T16:13:39;7.30;;;5.07;;
6517;SDS011;3292;48.944;9.240;2023-02-01T16:16:07;12.20;;;5.43;;
6517;SDS011;3292;48.944;9.240;2023-02-01T16:18:38;8.57;;;4.27;;
6517;SDS011;3292;48.944;9.240;2023-02-01T16:21:05;10.20;;;5.63;;
6517;SDS011;3292;48.944;9.240;2023-02-01T16:23:34;9.83;;;3.80;;
6517;SDS011;3292;48.944;9.240;2023-02-01T16:26:02;9.30;;;3.73;;
6517;SDS011;3292;48.944;9.240;2023-02-01T16:28:30;10.23;;;5.50;;
6517;SDS011;3292;48.944;9.240;2023-02-01T16:30:58;11.40;;;4.40;;
6517;SDS011;3292;48.944;9.240;2023-02-01T16:33:25;6.50;;;4.30;;
6517;SDS011;3292;48.944;9.240;2023-02-01T16:35:52;11.30;;;4.97;;
6517;SDS011;3292;48.944;9.240;2023-02-01T16:38:24;13.67;;;4.50;;
6517;SDS011;3292;48.944;9.240;2023-02-01T16:40:55;13.67;;;8.23;;